sensor_id;sensor_type;location;lat;lon;timestamp;temperature;humidity
76567;DHT22;65428;53.194;6.132;2023-09-19T00:01:33;13.10;99.90
76567;DHT22;65428;53.194;6.132;2023-09-19T00:03:59;13.30;99.90
76567;DHT22;65428;53.194;6.132;2023-09-19T00:06:24;13.20;99.90
76567;DHT22;65428;53.194;6.132;2023-09-19T00:08:52;13.40;99.90
76567;DHT22;65428;53.194;6.132;2023-09-19T00:11:17;13.50;99.90
76567;DHT22;65428;53.194;6.132;2023-09-19T00:13:43;13.30;99.90
76567;DHT22;65428;53.194;6.132;2023-09-19T00:16:10;13.40;99.90
76567;DHT22;65428;53.194;6.132;2023-09-19T00:18:39;13.50;99.90
76567;DHT22;65428;53.194;6.132;2023-09-19T00:21:05;13.60;99.90
76567;DHT22;65428;53.194;6.132;2023-09-19T00:23:31;13.50;99.90
76567;DHT22;65428;53.194;6.132;2023-09-19T00:26:00;13.30;99.90
76567;DHT22;65428;53.194;6.132;2023-09-19T00:28:26;13.60;99.90
76567;DHT22;65428;53.194;6.132;2023-09-19T00:30:52;13.30;99.90
76567;DHT22;65428;53.194;6.132;2023-09-19T00:33:20;13.30;99.90
76567;DHT22;65428;53.194;6.132;2023-09-19T00:35:53;13.60;99.90
76567;DHT22;65428;53.194;6.132;2023-09-19T00:38:19;13.40;99.90
76567;DHT22;65428;53.194;6.132;2023-09-19T00:40:48;13.80;99.90
76567;DHT22;65428;53.194;6.132;2023-09-19T00:43:16;13.70;99.90
76567;DHT22;65428;53.194;6.132;2023-09-19T00:45:47;13.50;99.90
76567;DHT22;65428;53.194;6.132;2023-09-19T00:48:17;13.80;99.90
76567;DHT22;65428;53.194;6.132;2023-09-19T00:50:47;13.50;99.90
76567;DHT22;65428;53.194;6.132;2023-09-19T00:53:17;13.50;99.90
76567;DHT22;65428;53.194;6.132;2023-09-19T00:55:45;12.80;99.90
76567;DHT22;65428;53.194;6.132;2023-09-19T00:58:11;13.40;99.90
76567;DHT22;65428;53.194;6.132;2023-09-19T01:00:37;12.90;99.90
76567;DHT22;65428;53.194;6.132;2023-09-19T01:03:03;13.90;99.90
76567;DHT22;65428;53.194;6.132;2023-09-19T01:05:30;13.00;99.90
76567;DHT22;65428;53.194;6.132;2023-09-19T01:07:56;13.20;99.90
76567;DHT22;65428;53.194;6.132;2023-09-19T01:10:22;13.20;99.90
76567;DHT22;65428;53.194;6.132;2023-09-19T01:18:31;13.10;99.90
76567;DHT22;65428;53.194;6.132;2023-09-19T01:21:34;13.30;99.90
76567;DHT22;65428;53.194;6.132;2023-09-19T01:30:10;12.60;99.90
76567;DHT22;65428;53.194;6.132;2023-09-19T01:32:37;12.50;99.90
76567;DHT22;65428;53.194;6.132;2023-09-19T01:35:03;12.60;99.90
76567;DHT22;65428;53.194;6.132;2023-09-19T01:37:30;12.40;99.90
76567;DHT22;65428;53.194;6.132;2023-09-19T01:39:59;12.30;99.90
76567;DHT22;65428;53.194;6.132;2023-09-19T01:42:49;12.60;99.90
76567;DHT22;65428;53.194;6.132;2023-09-19T01:47:55;12.30;99.90
76567;DHT22;65428;53.194;6.132;2023-09-19T01:50:38;12.10;99.90
76567;DHT22;65428;53.194;6.132;2023-09-19T01:53:30;12.20;99.90
76567;DHT22;65428;53.194;6.132;2023-09-19T01:55:59;12.20;99.90
76567;DHT22;65428;53.194;6.132;2023-09-19T01:58:33;12.30;99.90
76567;DHT22;65428;53.194;6.132;2023-09-19T02:01:00;12.30;99.90
76567;DHT22;65428;53.194;6.132;2023-09-19T02:03:27;12.90;99.90
76567;DHT22;65428;53.194;6.132;2023-09-19T02:05:54;12.40;99.90
76567;DHT22;65428;53.194;6.132;2023-09-19T02:08:21;12.30;99.90
76567;DHT22;65428;53.194;6.132;2023-09-19T02:10:51;12.40;99.90
76567;DHT22;65428;53.194;6.132;2023-09-19T02:13:22;12.40;99.90
76567;DHT22;65428;53.194;6.132;2023-09-19T02:15:53;12.10;99.90
76567;DHT22;65428;53.194;6.132;2023-09-19T02:18:19;12.00;99.90
76567;DHT22;65428;53.194;6.132;2023-09-19T02:20:45;12.00;99.90
76567;DHT22;65428;53.194;6.132;2023-09-19T02:23:12;11.80;99.90
76567;DHT22;65428;53.194;6.132;2023-09-19T02:25:38;12.00;99.90
76567;DHT22;65428;53.194;6.132;2023-09-19T02:28:06;12.10;99.90
76567;DHT22;65428;53.194;6.132;2023-09-19T02:30:32;12.00;99.90
76567;DHT22;65428;53.194;6.132;2023-09-19T02:32:58;12.20;99.90
76567;DHT22;65428;53.194;6.132;2023-09-19T02:35:26;12.40;99.90
76567;DHT22;65428;53.194;6.132;2023-09-19T02:37:53;11.60;99.90
76567;DHT22;65428;53.194;6.132;2023-09-19T02:40:19;12.20;99.90
76567;DHT22;65428;53.194;6.132;2023-09-19T02:42:46;12.20;99.90
76567;DHT22;65428;53.194;6.132;2023-09-19T02:45:14;12.10;99.90
76567;DHT22;65428;53.194;6.132;2023-09-19T02:47:40;12.20;99.90
76567;DHT22;65428;53.194;6.132;2023-09-19T02:50:06;12.50;99.90
76567;DHT22;65428;53.194;6.132;2023-09-19T02:52:32;12.40;99.90
76567;DHT22;65428;53.194;6.132;2023-09-19T02:54:58;12.40;99.90
76567;DHT22;65428;53.194;6.132;2023-09-19T02:57:24;12.20;99.90
76567;DHT22;65428;53.194;6.132;2023-09-19T02:59:49;12.60;99.90
76567;DHT22;65428;53.194;6.132;2023-09-19T03:02:15;12.90;99.90
76567;DHT22;65428;53.194;6.132;2023-09-19T03:04:41;12.70;99.90
76567;DHT22;65428;53.194;6.132;2023-09-19T03:07:07;12.60;99.90
76567;DHT22;65428;53.194;6.132;2023-09-19T03:09:39;12.20;99.90
76567;DHT22;65428;53.194;6.132;2023-09-19T03:12:05;12.50;99.90
76567;DHT22;65428;53.194;6.132;2023-09-19T03:14:32;12.70;99.90
76567;DHT22;65428;53.194;6.132;2023-09-19T03:17:01;12.60;99.90
76567;DHT22;65428;53.194;6.132;2023-09-19T03:19:30;12.70;99.90
76567;DHT22;65428;53.194;6.132;2023-09-19T03:21:56;12.90;99.90
76567;DHT22;65428;53.194;6.132;2023-09-19T03:24:23;12.60;99.90
76567;DHT22;65428;53.194;6.132;2023-09-19T03:26:49;12.60;99.90
76567;DHT22;65428;53.194;6.132;2023-09-19T03:29:20;12.20;99.90
76567;DHT22;65428;53.194;6.132;2023-09-19T03:31:53;12.50;99.90
76567;DHT22;65428;53.194;6.132;2023-09-19T03:34:20;12.70;99.90
76567;DHT22;65428;53.194;6.132;2023-09-19T03:36:46;12.40;99.90
76567;DHT22;65428;53.194;6.132;2023-09-19T03:39:11;12.20;99.90
76567;DHT22;65428;53.194;6.132;2023-09-19T03:41:38;12.40;99.90
76567;DHT22;65428;53.194;6.132;2023-09-19T03:44:04;12.30;99.90
76567;DHT22;65428;53.194;6.132;2023-09-19T03:46:30;12.30;99.90
76567;DHT22;65428;53.194;6.132;2023-09-19T03:48:55;12.50;99.90
76567;DHT22;65428;53.194;6.132;2023-09-19T03:51:21;12.40;99.90
76567;DHT22;65428;53.194;6.132;2023-09-19T03:53:47;12.90;99.90
76567;DHT22;65428;53.194;6.132;2023-09-19T03:56:15;12.00;99.90
76567;DHT22;65428;53.194;6.132;2023-09-19T03:58:40;12.60;99.90
76567;DHT22;65428;53.194;6.132;2023-09-19T04:01:06;12.60;99.90
76567;DHT22;65428;53.194;6.132;2023-09-19T04:03:35;12.70;99.90
76567;DHT22;65428;53.194;6.132;2023-09-19T04:06:15;12.50;99.90
76567;DHT22;65428;53.194;6.132;2023-09-19T04:08:45;12.90;99.90
76567;DHT22;65428;53.194;6.132;2023-09-19T04:11:12;12.70;99.90
76567;DHT22;65428;53.194;6.132;2023-09-19T04:13:40;12.50;99.90
76567;DHT22;65428;53.194;6.132;2023-09-19T04:16:06;12.50;99.90
76567;DHT22;65428;53.194;6.132;2023-09-19T04:18:33;12.50;99.90
76567;DHT22;65428;53.194;6.132;2023-09-19T04:20:59;12.50;99.90
76567;DHT22;65428;53.194;6.132;2023-09-19T04:23:27;12.10;99.90
76567;DHT22;65428;53.194;6.132;2023-09-19T04:25:53;12.60;99.90
76567;DHT22;65428;53.194;6.132;2023-09-19T04:28:19;12.60;99.90
76567;DHT22;65428;53.194;6.132;2023-09-19T04:30:45;12.90;99.90
76567;DHT22;65428;53.194;6.132;2023-09-19T04:33:10;12.70;99.90
76567;DHT22;65428;53.194;6.132;2023-09-19T04:35:40;13.20;99.90
76567;DHT22;65428;53.194;6.132;2023-09-19T04:38:08;12.70;99.90
76567;DHT22;65428;53.194;6.132;2023-09-19T04:40:34;12.70;99.90
76567;DHT22;65428;53.194;6.132;2023-09-19T04:43:00;12.90;99.90
76567;DHT22;65428;53.194;6.132;2023-09-19T04:45:29;13.10;99.90
76567;DHT22;65428;53.194;6.132;2023-09-19T04:47:55;13.10;99.90
76567;DHT22;65428;53.194;6.132;2023-09-19T04:50:22;12.80;99.90
76567;DHT22;65428;53.194;6.132;2023-09-19T04:52:51;12.80;99.90
76567;DHT22;65428;53.194;6.132;2023-09-19T04:55:18;12.90;99.90
76567;DHT22;65428;53.194;6.132;2023-09-19T04:57:48;12.80;99.90
76567;DHT22;65428;53.194;6.132;2023-09-19T05:00:18;12.90;99.90
76567;DHT22;65428;53.194;6.132;2023-09-19T05:02:45;12.90;99.90
76567;DHT22;65428;53.194;6.132;2023-09-19T05:05:11;13.20;99.90
76567;DHT22;65428;53.194;6.132;2023-09-19T05:07:45;13.40;99.90
76567;DHT22;65428;53.194;6.132;2023-09-19T05:10:12;13.10;99.90
76567;DHT22;65428;53.194;6.132;2023-09-19T05:12:41;13.30;99.90
76567;DHT22;65428;53.194;6.132;2023-09-19T05:15:09;12.70;99.90
76567;DHT22;65428;53.194;6.132;2023-09-19T05:17:35;13.50;99.90
76567;DHT22;65428;53.194;6.132;2023-09-19T05:20:02;13.50;99.90
76567;DHT22;65428;53.194;6.132;2023-09-19T05:22:42;13.30;99.90
76567;DHT22;65428;53.194;6.132;2023-09-19T05:25:12;13.50;99.90
76567;DHT22;65428;53.194;6.132;2023-09-19T05:27:47;13.20;99.90
76567;DHT22;65428;53.194;6.132;2023-09-19T05:30:13;13.40;99.90
76567;DHT22;65428;53.194;6.132;2023-09-19T05:32:40;13.50;99.90
76567;DHT22;65428;53.194;6.132;2023-09-19T05:35:09;13.50;99.90
76567;DHT22;65428;53.194;6.132;2023-09-19T05:37:35;13.50;99.90
76567;DHT22;65428;53.194;6.132;2023-09-19T05:40:02;13.70;99.90
76567;DHT22;65428;53.194;6.132;2023-09-19T05:42:35;13.60;99.90
76567;DHT22;65428;53.194;6.132;2023-09-19T05:45:10;13.50;99.90
76567;DHT22;65428;53.194;6.132;2023-09-19T05:47:40;13.80;99.90
76567;DHT22;65428;53.194;6.132;2023-09-19T05:50:11;13.80;99.90
76567;DHT22;65428;53.194;6.132;2023-09-19T05:52:40;13.70;99.90
76567;DHT22;65428;53.194;6.132;2023-09-19T05:55:10;13.70;99.90
76567;DHT22;65428;53.194;6.132;2023-09-19T05:57:37;13.90;99.90
76567;DHT22;65428;53.194;6.132;2023-09-19T06:00:16;13.80;99.90
76567;DHT22;65428;53.194;6.132;2023-09-19T06:02:44;13.80;99.90
76567;DHT22;65428;53.194;6.132;2023-09-19T06:05:12;14.00;99.90
76567;DHT22;65428;53.194;6.132;2023-09-19T06:07:41;13.90;99.90
76567;DHT22;65428;53.194;6.132;2023-09-19T06:10:10;13.90;99.90
76567;DHT22;65428;53.194;6.132;2023-09-19T06:12:39;14.10;99.90
76567;DHT22;65428;53.194;6.132;2023-09-19T06:15:12;14.20;99.90
76567;DHT22;65428;53.194;6.132;2023-09-19T06:17:51;14.20;99.90
76567;DHT22;65428;53.194;6.132;2023-09-19T06:20:20;14.40;99.90
76567;DHT22;65428;53.194;6.132;2023-09-19T06:22:48;14.30;99.90
76567;DHT22;65428;53.194;6.132;2023-09-19T06:25:15;14.60;99.90
76567;DHT22;65428;53.194;6.132;2023-09-19T06:27:56;14.60;99.90
76567;DHT22;65428;53.194;6.132;2023-09-19T06:30:25;14.40;99.90
76567;DHT22;65428;53.194;6.132;2023-09-19T06:32:59;14.70;99.90
76567;DHT22;65428;53.194;6.132;2023-09-19T06:35:32;14.60;99.90
76567;DHT22;65428;53.194;6.132;2023-09-19T06:37:58;14.30;99.90
76567;DHT22;65428;53.194;6.132;2023-09-19T06:40:24;14.60;99.90
76567;DHT22;65428;53.194;6.132;2023-09-19T06:42:51;14.80;99.90
76567;DHT22;65428;53.194;6.132;2023-09-19T06:45:18;14.60;99.90
76567;DHT22;65428;53.194;6.132;2023-09-19T06:47:47;14.60;99.90
76567;DHT22;65428;53.194;6.132;2023-09-19T06:50:17;14.80;99.90
76567;DHT22;65428;53.194;6.132;2023-09-19T06:52:44;14.80;99.90
76567;DHT22;65428;53.194;6.132;2023-09-19T06:55:11;14.90;99.90
76567;DHT22;65428;53.194;6.132;2023-09-19T06:57:39;14.90;99.90
76567;DHT22;65428;53.194;6.132;2023-09-19T07:00:06;15.00;99.90
76567;DHT22;65428;53.194;6.132;2023-09-19T07:02:45;15.00;99.90
76567;DHT22;65428;53.194;6.132;2023-09-19T07:05:11;15.10;99.90
76567;DHT22;65428;53.194;6.132;2023-09-19T07:07:37;15.20;99.90
76567;DHT22;65428;53.194;6.132;2023-09-19T07:10:03;15.40;99.90
76567;DHT22;65428;53.194;6.132;2023-09-19T07:12:31;15.30;99.90
76567;DHT22;65428;53.194;6.132;2023-09-19T07:15:01;15.50;99.90
76567;DHT22;65428;53.194;6.132;2023-09-19T07:17:31;15.50;99.90
76567;DHT22;65428;53.194;6.132;2023-09-19T07:19:58;15.90;99.90
76567;DHT22;65428;53.194;6.132;2023-09-19T07:22:25;16.00;99.90
76567;DHT22;65428;53.194;6.132;2023-09-19T07:24:51;15.50;99.90
76567;DHT22;65428;53.194;6.132;2023-09-19T07:27:17;16.00;99.90
76567;DHT22;65428;53.194;6.132;2023-09-19T07:29:43;15.90;99.90
76567;DHT22;65428;53.194;6.132;2023-09-19T07:32:10;15.80;99.90
76567;DHT22;65428;53.194;6.132;2023-09-19T07:34:37;16.20;99.90
76567;DHT22;65428;53.194;6.132;2023-09-19T07:37:06;16.00;99.90
76567;DHT22;65428;53.194;6.132;2023-09-19T07:39:31;16.00;99.90
76567;DHT22;65428;53.194;6.132;2023-09-19T07:42:21;16.40;99.90
76567;DHT22;65428;53.194;6.132;2023-09-19T07:44:53;16.20;99.90
76567;DHT22;65428;53.194;6.132;2023-09-19T07:47:22;16.20;99.90
76567;DHT22;65428;53.194;6.132;2023-09-19T07:49:51;16.30;99.90
76567;DHT22;65428;53.194;6.132;2023-09-19T07:52:17;16.40;99.90
76567;DHT22;65428;53.194;6.132;2023-09-19T07:55:02;16.40;99.90
76567;DHT22;65428;53.194;6.132;2023-09-19T07:57:40;16.40;99.90
76567;DHT22;65428;53.194;6.132;2023-09-19T08:00:12;16.20;99.90
76567;DHT22;65428;53.194;6.132;2023-09-19T08:02:39;16.50;99.90
76567;DHT22;65428;53.194;6.132;2023-09-19T08:05:12;17.10;99.90
76567;DHT22;65428;53.194;6.132;2023-09-19T08:07:41;16.50;99.90
76567;DHT22;65428;53.194;6.132;2023-09-19T08:10:10;16.70;99.90
76567;DHT22;65428;53.194;6.132;2023-09-19T08:12:47;16.60;99.90
76567;DHT22;65428;53.194;6.132;2023-09-19T08:15:18;16.70;99.90
76567;DHT22;65428;53.194;6.132;2023-09-19T08:17:48;16.80;99.90
76567;DHT22;65428;53.194;6.132;2023-09-19T08:20:13;16.60;99.90
76567;DHT22;65428;53.194;6.132;2023-09-19T08:22:51;16.70;99.90
76567;DHT22;65428;53.194;6.132;2023-09-19T08:25:21;16.90;99.90
76567;DHT22;65428;53.194;6.132;2023-09-19T08:27:52;16.80;99.90
76567;DHT22;65428;53.194;6.132;2023-09-19T08:30:24;17.00;99.90
76567;DHT22;65428;53.194;6.132;2023-09-19T08:33:08;17.10;99.90
76567;DHT22;65428;53.194;6.132;2023-09-19T08:35:44;17.20;99.90
76567;DHT22;65428;53.194;6.132;2023-09-19T08:38:35;17.80;99.90
76567;DHT22;65428;53.194;6.132;2023-09-19T08:41:06;17.70;99.90
76567;DHT22;65428;53.194;6.132;2023-09-19T08:43:58;17.90;99.90
76567;DHT22;65428;53.194;6.132;2023-09-19T08:46:45;18.20;99.90
76567;DHT22;65428;53.194;6.132;2023-09-19T08:52:25;17.90;99.90
76567;DHT22;65428;53.194;6.132;2023-09-19T08:55:13;18.20;99.90
76567;DHT22;65428;53.194;6.132;2023-09-19T08:58:02;18.00;99.90
76567;DHT22;65428;53.194;6.132;2023-09-19T09:00:29;18.70;99.90
76567;DHT22;65428;53.194;6.132;2023-09-19T09:02:56;18.30;99.90
76567;DHT22;65428;53.194;6.132;2023-09-19T09:05:30;18.00;99.90
76567;DHT22;65428;53.194;6.132;2023-09-19T09:08:12;18.50;99.90
76567;DHT22;65428;53.194;6.132;2023-09-19T09:10:44;18.20;99.90
76567;DHT22;65428;53.194;6.132;2023-09-19T09:13:17;18.30;99.90
76567;DHT22;65428;53.194;6.132;2023-09-19T09:19:12;18.10;99.90
76567;DHT22;65428;53.194;6.132;2023-09-19T09:21:38;18.50;99.90
76567;DHT22;65428;53.194;6.132;2023-09-19T09:24:29;18.20;99.90
76567;DHT22;65428;53.194;6.132;2023-09-19T09:26:59;18.40;99.90
76567;DHT22;65428;53.194;6.132;2023-09-19T09:29:45;18.40;99.90
76567;DHT22;65428;53.194;6.132;2023-09-19T09:32:28;18.40;99.90
76567;DHT22;65428;53.194;6.132;2023-09-19T09:34:55;18.50;99.90
76567;DHT22;65428;53.194;6.132;2023-09-19T09:37:23;18.80;99.90
76567;DHT22;65428;53.194;6.132;2023-09-19T09:39:55;18.70;99.90
76567;DHT22;65428;53.194;6.132;2023-09-19T09:42:32;19.30;99.90
76567;DHT22;65428;53.194;6.132;2023-09-19T09:45:30;19.00;98.50
76567;DHT22;65428;53.194;6.132;2023-09-19T09:47:59;19.00;99.90
76567;DHT22;65428;53.194;6.132;2023-09-19T09:50:35;19.20;99.90
76567;DHT22;65428;53.194;6.132;2023-09-19T09:53:29;19.00;99.90
76567;DHT22;65428;53.194;6.132;2023-09-19T09:56:08;19.00;99.90
76567;DHT22;65428;53.194;6.132;2023-09-19T09:58:49;19.10;99.90
76567;DHT22;65428;53.194;6.132;2023-09-19T10:01:17;18.90;99.90
76567;DHT22;65428;53.194;6.132;2023-09-19T10:03:43;18.90;99.90
76567;DHT22;65428;53.194;6.132;2023-09-19T10:06:17;18.90;99.90
76567;DHT22;65428;53.194;6.132;2023-09-19T10:09:08;19.30;99.90
76567;DHT22;65428;53.194;6.132;2023-09-19T10:11:44;19.40;99.90
76567;DHT22;65428;53.194;6.132;2023-09-19T10:14:17;19.50;99.90
76567;DHT22;65428;53.194;6.132;2023-09-19T10:16:47;19.40;99.90
76567;DHT22;65428;53.194;6.132;2023-09-19T10:19:30;19.60;99.90
76567;DHT22;65428;53.194;6.132;2023-09-19T10:22:03;19.70;99.90
76567;DHT22;65428;53.194;6.132;2023-09-19T10:24:30;19.50;99.90
76567;DHT22;65428;53.194;6.132;2023-09-19T10:26:59;19.80;99.90
76567;DHT22;65428;53.194;6.132;2023-09-19T10:29:28;19.50;99.90
76567;DHT22;65428;53.194;6.132;2023-09-19T10:31:58;19.60;99.90
76567;DHT22;65428;53.194;6.132;2023-09-19T10:34:25;19.80;99.90
76567;DHT22;65428;53.194;6.132;2023-09-19T10:36:52;19.70;99.90
76567;DHT22;65428;53.194;6.132;2023-09-19T10:39:19;19.70;99.90
76567;DHT22;65428;53.194;6.132;2023-09-19T10:41:53;19.50;99.90
76567;DHT22;65428;53.194;6.132;2023-09-19T10:44:25;19.40;99.90
76567;DHT22;65428;53.194;6.132;2023-09-19T10:46:54;19.40;99.90
76567;DHT22;65428;53.194;6.132;2023-09-19T10:49:21;19.30;99.90
76567;DHT22;65428;53.194;6.132;2023-09-19T10:51:49;19.80;99.90
76567;DHT22;65428;53.194;6.132;2023-09-19T10:54:20;19.40;99.90
76567;DHT22;65428;53.194;6.132;2023-09-19T10:56:52;19.40;99.90
76567;DHT22;65428;53.194;6.132;2023-09-19T10:59:20;19.00;99.90
76567;DHT22;65428;53.194;6.132;2023-09-19T11:04:29;18.90;99.90
76567;DHT22;65428;53.194;6.132;2023-09-19T11:07:14;18.50;99.90
76567;DHT22;65428;53.194;6.132;2023-09-19T11:15:04;18.70;99.90
76567;DHT22;65428;53.194;6.132;2023-09-19T11:17:40;19.10;99.90
76567;DHT22;65428;53.194;6.132;2023-09-19T11:30:37;18.90;99.90
76567;DHT22;65428;53.194;6.132;2023-09-19T11:33:19;19.00;99.90
76567;DHT22;65428;53.194;6.132;2023-09-19T11:36:10;18.90;99.90
76567;DHT22;65428;53.194;6.132;2023-09-19T11:43:53;18.80;99.90
76567;DHT22;65428;53.194;6.132;2023-09-19T11:46:25;18.60;99.90
76567;DHT22;65428;53.194;6.132;2023-09-19T11:48:51;19.00;99.90
76567;DHT22;65428;53.194;6.132;2023-09-19T11:51:21;18.50;99.90
76567;DHT22;65428;53.194;6.132;2023-09-19T11:53:52;18.60;99.90
76567;DHT22;65428;53.194;6.132;2023-09-19T11:56:22;18.50;99.90
76567;DHT22;65428;53.194;6.132;2023-09-19T11:58:51;18.60;99.90
76567;DHT22;65428;53.194;6.132;2023-09-19T12:03:56;18.30;99.90
76567;DHT22;65428;53.194;6.132;2023-09-19T12:06:28;18.70;99.90
76567;DHT22;65428;53.194;6.132;2023-09-19T12:09:04;18.70;99.90
76567;DHT22;65428;53.194;6.132;2023-09-19T12:11:42;18.20;99.90
76567;DHT22;65428;53.194;6.132;2023-09-19T12:14:09;18.00;99.90
76567;DHT22;65428;53.194;6.132;2023-09-19T12:16:35;17.80;99.90
76567;DHT22;65428;53.194;6.132;2023-09-19T12:19:19;17.60;99.90
76567;DHT22;65428;53.194;6.132;2023-09-19T12:21:58;17.40;99.90
76567;DHT22;65428;53.194;6.132;2023-09-19T12:24:26;17.40;99.90
76567;DHT22;65428;53.194;6.132;2023-09-19T12:27:05;17.50;99.90
76567;DHT22;65428;53.194;6.132;2023-09-19T12:29:32;17.60;99.90
76567;DHT22;65428;53.194;6.132;2023-09-19T12:32:07;17.80;99.90
76567;DHT22;65428;53.194;6.132;2023-09-19T12:34:33;18.10;99.90
76567;DHT22;65428;53.194;6.132;2023-09-19T12:37:25;17.80;99.90
76567;DHT22;65428;53.194;6.132;2023-09-19T12:40:07;17.90;99.90
76567;DHT22;65428;53.194;6.132;2023-09-19T12:42:49;18.30;99.90
76567;DHT22;65428;53.194;6.132;2023-09-19T12:45:15;17.90;99.90
76567;DHT22;65428;53.194;6.132;2023-09-19T12:48:17;17.90;99.90
76567;DHT22;65428;53.194;6.132;2023-09-19T12:51:05;17.80;99.90
76567;DHT22;65428;53.194;6.132;2023-09-19T12:53:42;17.80;99.90
76567;DHT22;65428;53.194;6.132;2023-09-19T12:56:12;17.60;99.90
76567;DHT22;65428;53.194;6.132;2023-09-19T12:58:56;17.90;99.90
76567;DHT22;65428;53.194;6.132;2023-09-19T13:01:28;17.60;99.90
76567;DHT22;65428;53.194;6.132;2023-09-19T13:04:20;17.50;99.90
76567;DHT22;65428;53.194;6.132;2023-09-19T13:06:52;17.60;99.90
76567;DHT22;65428;53.194;6.132;2023-09-19T13:09:22;17.60;99.90
76567;DHT22;65428;53.194;6.132;2023-09-19T13:11:50;17.70;99.90
76567;DHT22;65428;53.194;6.132;2023-09-19T13:17:03;18.00;99.90
76567;DHT22;65428;53.194;6.132;2023-09-19T13:19:41;17.70;99.90
76567;DHT22;65428;53.194;6.132;2023-09-19T13:22:43;17.90;99.90
76567;DHT22;65428;53.194;6.132;2023-09-19T13:25:19;17.60;99.90
76567;DHT22;65428;53.194;6.132;2023-09-19T13:30:14;17.70;99.90
76567;DHT22;65428;53.194;6.132;2023-09-19T13:32:40;17.70;99.90
76567;DHT22;65428;53.194;6.132;2023-09-19T13:35:07;17.80;99.90
76567;DHT22;65428;53.194;6.132;2023-09-19T13:37:35;17.80;99.90
76567;DHT22;65428;53.194;6.132;2023-09-19T13:40:10;18.30;99.90
76567;DHT22;65428;53.194;6.132;2023-09-19T13:42:37;18.10;99.90
76567;DHT22;65428;53.194;6.132;2023-09-19T13:45:06;18.20;99.90
76567;DHT22;65428;53.194;6.132;2023-09-19T13:47:37;18.40;99.90
76567;DHT22;65428;53.194;6.132;2023-09-19T13:50:04;18.60;99.90
76567;DHT22;65428;53.194;6.132;2023-09-19T13:52:31;18.80;99.90
76567;DHT22;65428;53.194;6.132;2023-09-19T13:54:57;18.80;99.90
76567;DHT22;65428;53.194;6.132;2023-09-19T13:57:24;18.90;99.90
76567;DHT22;65428;53.194;6.132;2023-09-19T13:59:49;18.80;99.90
76567;DHT22;65428;53.194;6.132;2023-09-19T14:02:15;18.70;99.90
76567;DHT22;65428;53.194;6.132;2023-09-19T14:04:44;18.70;99.90
76567;DHT22;65428;53.194;6.132;2023-09-19T14:07:09;18.70;99.90
76567;DHT22;65428;53.194;6.132;2023-09-19T14:09:36;18.60;99.90
76567;DHT22;65428;53.194;6.132;2023-09-19T14:12:02;18.70;99.90
76567;DHT22;65428;53.194;6.132;2023-09-19T14:14:28;18.60;99.90
76567;DHT22;65428;53.194;6.132;2023-09-19T14:16:54;18.40;99.90
76567;DHT22;65428;53.194;6.132;2023-09-19T14:19:20;18.40;99.90
76567;DHT22;65428;53.194;6.132;2023-09-19T14:21:46;18.40;99.90
76567;DHT22;65428;53.194;6.132;2023-09-19T14:24:17;18.30;99.90
76567;DHT22;65428;53.194;6.132;2023-09-19T14:26:43;18.00;99.90
76567;DHT22;65428;53.194;6.132;2023-09-19T14:29:09;18.30;99.90
76567;DHT22;65428;53.194;6.132;2023-09-19T14:31:37;18.30;99.90
76567;DHT22;65428;53.194;6.132;2023-09-19T14:34:05;18.10;99.90
76567;DHT22;65428;53.194;6.132;2023-09-19T14:36:31;18.10;99.90
76567;DHT22;65428;53.194;6.132;2023-09-19T14:38:57;18.00;99.90
76567;DHT22;65428;53.194;6.132;2023-09-19T14:41:26;18.10;99.90
76567;DHT22;65428;53.194;6.132;2023-09-19T14:43:52;18.00;99.90
76567;DHT22;65428;53.194;6.132;2023-09-19T14:46:18;18.00;99.90
76567;DHT22;65428;53.194;6.132;2023-09-19T14:48:45;18.10;99.90
76567;DHT22;65428;53.194;6.132;2023-09-19T14:51:13;18.00;99.90
76567;DHT22;65428;53.194;6.132;2023-09-19T14:53:42;17.90;99.90
76567;DHT22;65428;53.194;6.132;2023-09-19T14:56:09;17.90;99.90
76567;DHT22;65428;53.194;6.132;2023-09-19T14:58:35;17.80;99.90
76567;DHT22;65428;53.194;6.132;2023-09-19T15:01:09;17.90;99.90
76567;DHT22;65428;53.194;6.132;2023-09-19T15:03:38;18.00;99.90
76567;DHT22;65428;53.194;6.132;2023-09-19T15:06:09;17.70;99.90
76567;DHT22;65428;53.194;6.132;2023-09-19T15:08:38;17.60;99.90
76567;DHT22;65428;53.194;6.132;2023-09-19T15:11:09;17.40;99.90
76567;DHT22;65428;53.194;6.132;2023-09-19T15:13:36;17.60;99.90
76567;DHT22;65428;53.194;6.132;2023-09-19T15:16:03;17.60;99.90
76567;DHT22;65428;53.194;6.132;2023-09-19T15:18:30;17.60;99.90
76567;DHT22;65428;53.194;6.132;2023-09-19T15:20:56;17.90;99.90
76567;DHT22;65428;53.194;6.132;2023-09-19T15:23:22;17.90;99.90
76567;DHT22;65428;53.194;6.132;2023-09-19T15:25:49;17.60;99.90
76567;DHT22;65428;53.194;6.132;2023-09-19T15:28:15;17.50;99.90
76567;DHT22;65428;53.194;6.132;2023-09-19T15:30:40;17.70;99.90
76567;DHT22;65428;53.194;6.132;2023-09-19T15:33:06;17.90;99.90
76567;DHT22;65428;53.194;6.132;2023-09-19T15:35:32;17.50;99.90
76567;DHT22;65428;53.194;6.132;2023-09-19T15:37:57;17.70;99.90
76567;DHT22;65428;53.194;6.132;2023-09-19T15:40:27;17.50;99.90
76567;DHT22;65428;53.194;6.132;2023-09-19T15:42:54;17.90;99.90
76567;DHT22;65428;53.194;6.132;2023-09-19T15:45:20;17.60;99.90
76567;DHT22;65428;53.194;6.132;2023-09-19T15:47:47;17.60;99.90
76567;DHT22;65428;53.194;6.132;2023-09-19T15:50:12;17.60;99.90
76567;DHT22;65428;53.194;6.132;2023-09-19T15:52:44;17.60;99.90
76567;DHT22;65428;53.194;6.132;2023-09-19T15:55:13;17.90;99.90
76567;DHT22;65428;53.194;6.132;2023-09-19T15:57:40;17.40;99.90
76567;DHT22;65428;53.194;6.132;2023-09-19T16:00:06;17.80;99.90
76567;DHT22;65428;53.194;6.132;2023-09-19T16:02:42;17.40;99.90
76567;DHT22;65428;53.194;6.132;2023-09-19T16:05:08;17.50;99.90
76567;DHT22;65428;53.194;6.132;2023-09-19T16:07:37;17.30;99.90
76567;DHT22;65428;53.194;6.132;2023-09-19T16:10:03;17.30;99.90
76567;DHT22;65428;53.194;6.132;2023-09-19T16:12:29;17.20;99.90
76567;DHT22;65428;53.194;6.132;2023-09-19T16:14:56;17.40;99.90
76567;DHT22;65428;53.194;6.132;2023-09-19T16:17:21;17.20;99.90
76567;DHT22;65428;53.194;6.132;2023-09-19T16:19:47;17.10;99.90
76567;DHT22;65428;53.194;6.132;2023-09-19T16:22:13;17.20;99.90
76567;DHT22;65428;53.194;6.132;2023-09-19T16:24:39;17.20;99.90
76567;DHT22;65428;53.194;6.132;2023-09-19T16:27:05;17.10;99.90
76567;DHT22;65428;53.194;6.132;2023-09-19T16:29:31;17.00;99.90
76567;DHT22;65428;53.194;6.132;2023-09-19T16:31:57;16.90;99.90
76567;DHT22;65428;53.194;6.132;2023-09-19T16:34:25;16.90;99.90
76567;DHT22;65428;53.194;6.132;2023-09-19T16:36:51;16.80;99.90
76567;DHT22;65428;53.194;6.132;2023-09-19T16:39:17;16.80;99.90
76567;DHT22;65428;53.194;6.132;2023-09-19T16:41:43;16.90;99.90